Time;durP1;ratioP1;P1;durP2;ratioP2;P2;SDS_P1;SDS_P2;PMS_P1;PMS_P2;Temp;Humidity;BMP_temperature;BMP_pressure;BME280_temperature;BME280_humidity;BME280_pressure;Samples;Min_cycle;Max_cycle;Signal;HPM_P1;HPM_P2
2022/12/28 00:00:08;;;;;;;3.30;2.17;;;;;;;7.38;100.00;101813.25;5048729;28;20772;-74
2022/12/28 00:02:34;;;;;;;3.65;2.33;;;;;;;7.38;100.00;101805.47;5049486;28;20028;-74
2022/12/28 00:04:59;;;;;;;3.83;2.45;;;;;;;7.39;100.00;101801.09;5058395;28;20151;-75
2022/12/28 00:07:25;;;;;;;4.28;2.30;;;;;;;7.38;100.00;101794.25;5052832;28;20082;-75
2022/12/28 00:09:50;;;;;;;7.60;3.83;;;;;;;7.43;100.00;101795.66;5051808;28;20112;-75
2022/12/28 00:12:15;;;;;;;6.20;3.67;;;;;;;7.40;100.00;101792.41;5054507;28;20028;-75
2022/12/28 00:14:41;;;;;;;5.80;3.75;;;;;;;7.38;100.00;101795.09;5030797;28;21767;-74
2022/12/28 00:17:06;;;;;;;6.32;3.65;;;;;;;7.36;100.00;101791.75;5054118;28;20365;-74
2022/12/28 00:19:32;;;;;;;4.32;2.63;;;;;;;7.29;100.00;101790.44;5056099;28;20085;-75
2022/12/28 00:21:57;;;;;;;8.50;3.35;;;;;;;7.24;100.00;101793.31;5054878;28;20143;-74
2022/12/28 00:24:24;;;;;;;5.78;3.22;;;;;;;7.24;100.00;101797.66;5055561;28;20033;-74
2022/12/28 00:26:50;;;;;;;4.35;2.45;;;;;;;7.19;100.00;101800.53;5055481;28;20763;-75
2022/12/28 00:29:16;;;;;;;4.50;2.55;;;;;;;7.13;100.00;101810.41;5057431;28;20452;-75
2022/12/28 00:31:44;;;;;;;4.72;2.10;;;;;;;7.09;100.00;101817.53;5052842;28;20059;-74
2022/12/28 00:34:11;;;;;;;3.70;2.45;;;;;;;7.10;100.00;101819.19;5058046;28;20064;-75
2022/12/28 00:36:36;;;;;;;3.42;2.30;;;;;;;7.18;100.00;101810.97;5052646;28;20118;-74
2022/12/28 00:39:02;;;;;;;5.38;2.70;;;;;;;7.21;100.00;101800.44;5054168;28;20566;-75
2022/12/28 00:41:27;;;;;;;4.65;1.92;;;;;;;7.10;100.00;101795.03;5053738;28;20032;-75
2022/12/28 00:43:53;;;;;;;4.60;2.38;;;;;;;7.07;100.00;101796.09;5055342;28;20016;-74
2022/12/28 00:46:18;;;;;;;4.28;1.80;;;;;;;7.05;100.00;101795.34;5053756;28;20603;-75
2022/12/28 00:48:44;;;;;;;2.88;1.98;;;;;;;7.05;100.00;101786.72;5055629;28;20037;-75
2022/12/28 00:51:15;;;;;;;2.33;1.90;;;;;;;7.01;100.00;101785.25;5057041;28;20519;-74
2022/12/28 00:53:41;;;;;;;3.22;1.13;;;;;;;7.00;100.00;101781.81;5052325;28;20446;-74
2022/12/28 00:56:09;;;;;;;6.53;1.00;;;;;;;7.05;100.00;101777.19;5056255;28;20553;-74
2022/12/28 00:58:35;;;;;;;2.42;0.82;;;;;;;7.09;100.00;101775.25;5054703;28;20067;-74
2022/12/28 01:01:02;;;;;;;2.28;0.80;;;;;;;7.11;100.00;101770.78;5055604;28;20115;-74
2022/12/28 01:03:27;;;;;;;5.72;0.80;;;;;;;7.02;100.00;101779.97;5054002;28;20028;-74
2022/12/28 01:05:53;;;;;;;1.65;0.75;;;;;;;7.02;100.00;101773.94;5055338;28;20051;-75
2022/12/28 01:08:18;;;;;;;1.40;0.70;;;;;;;7.04;100.00;101769.50;5068169;28;20044;-74
2022/12/28 01:10:44;;;;;;;1.20;0.50;;;;;;;7.05;100.00;101776.38;5060633;28;20033;-74
2022/12/28 01:13:09;;;;;;;1.80;0.68;;;;;;;6.99;100.00;101775.78;5053913;28;20569;-74
2022/12/28 01:15:35;;;;;;;1.42;0.50;;;;;;;6.98;100.00;101781.91;5053558;28;20036;-74
2022/12/28 01:18:01;;;;;;;1.33;0.65;;;;;;;6.98;100.00;101776.72;5054216;28;20303;-75
2022/12/28 01:20:26;;;;;;;1.60;0.50;;;;;;;6.94;100.00;101780.41;5056020;28;20059;-75
2022/12/28 01:22:51;;;;;;;1.33;0.40;;;;;;;6.88;100.00;101782.53;5054420;28;20395;-74
2022/12/28 01:25:17;;;;;;;1.38;0.50;;;;;;;6.80;100.00;101788.13;5054270;28;20040;-74
2022/12/28 01:27:42;;;;;;;2.20;0.70;;;;;;;6.70;100.00;101787.00;5067723;28;20135;-74
2022/12/28 01:30:10;;;;;;;1.80;0.60;;;;;;;6.52;100.00;101785.47;5054355;28;20039;-75
2022/12/28 01:32:36;;;;;;;12.90;0.95;;;;;;;6.51;100.00;101783.78;5052773;28;20392;-75
2022/12/28 01:35:01;;;;;;;2.72;0.70;;;;;;;6.48;100.00;101781.38;5055974;28;20124;-74
2022/12/28 01:37:26;;;;;;;2.40;1.38;;;;;;;6.48;100.00;101776.19;5071148;28;20048;-75
2022/12/28 01:39:52;;;;;;;3.00;1.00;;;;;;;6.49;100.00;101775.28;5078764;28;20032;-74
2022/12/28 01:42:18;;;;;;;3.45;0.93;;;;;;;6.44;100.00;101777.28;5065218;28;20028;-74
2022/12/28 01:44:46;;;;;;;3.35;1.00;;;;;;;6.33;100.00;101778.72;5067687;28;20383;-75
2022/12/28 01:47:16;;;;;;;3.40;0.70;;;;;;;6.28;100.00;101778.13;5059393;28;20020;-75
2022/12/28 01:49:46;;;;;;;3.08;0.82;;;;;;;6.21;100.00;101789.75;5055044;28;20093;-75
2022/12/28 01:52:26;;;;;;;1.90;0.77;;;;;;;6.15;100.00;101779.72;5063310;28;20032;-75
2022/12/28 01:55:07;;;;;;;2.00;1.05;;;;;;;6.11;100.00;101775.66;5071919;28;20162;-74
2022/12/28 01:57:39;;;;;;;3.03;1.08;;;;;;;6.10;100.00;101771.41;5060025;28;20056;-75
2022/12/28 02:00:16;;;;;;;3.35;1.17;;;;;;;6.04;100.00;101763.97;5054924;28;20403;-74
2022/12/28 02:02:47;;;;;;;2.33;0.90;;;;;;;5.95;100.00;101756.72;5054177;28;20041;-74
2022/12/28 02:05:13;;;;;;;2.72;1.17;;;;;;;5.93;100.00;101761.13;5054131;28;20045;-74
2022/12/28 02:07:46;;;;;;;5.43;0.90;;;;;;;5.91;100.00;101768.97;5054689;28;20064;-74
2022/12/28 02:10:13;;;;;;;6.15;1.25;;;;;;;5.88;100.00;101765.69;5062662;28;20423;-74
2022/12/28 02:12:38;;;;;;;2.90;0.95;;;;;;;5.81;100.00;101772.94;5030870;28;20052;-74
2022/12/28 02:15:04;;;;;;;2.97;1.00;;;;;;;5.81;100.00;101769.50;5053583;28;20025;-74
2022/12/28 02:17:30;;;;;;;1.10;0.55;;;;;;;5.82;100.00;101766.00;5058311;28;20502;-74
2022/12/28 02:19:56;;;;;;;2.63;0.80;;;;;;;5.84;100.00;101769.34;5054618;28;20028;-74
2022/12/28 02:23:02;;;;;;;2.45;0.70;;;;;;;5.81;100.00;101764.34;5051671;28;20039;-74
2022/12/28 02:25:53;;;;;;;2.25;0.85;;;;;;;5.85;100.00;101763.25;5033176;28;20101;-74
2022/12/28 02:29:10;;;;;;;1.58;0.50;;;;;;;5.87;100.00;101759.69;4988414;28;20050;-74
2022/12/28 02:31:43;;;;;;;2.38;0.80;;;;;;;5.95;100.00;101759.28;4945293;28;20049;-74
2022/12/28 02:34:08;;;;;;;2.05;0.50;;;;;;;5.99;100.00;101761.63;4942466;28;20512;-74
2022/12/28 02:36:41;;;;;;;1.95;0.40;;;;;;;6.06;100.00;101761.31;4955823;28;20038;-74
2022/12/28 02:39:18;;;;;;;1.52;0.43;;;;;;;6.10;100.00;101755.03;4963389;28;20050;-74
2022/12/28 02:41:44;;;;;;;1.88;0.57;;;;;;;6.12;100.00;101756.63;4956656;28;21758;-74
2022/12/28 02:44:10;;;;;;;1.80;0.70;;;;;;;6.14;100.00;101757.38;4950083;28;20070;-74
2022/12/28 02:52:26;;;;;;;1.20;0.40;;;;;;;6.14;100.00;101741.03;4961933;28;20058;-75
2022/12/28 02:58:13;;;;;;;2.33;0.60;;;;;;;6.13;100.00;101740.19;4956160;28;20586;-75
2022/12/28 03:00:57;;;;;;;1.20;0.40;;;;;;;6.06;100.00;101738.84;4971205;28;20487;-75
2022/12/28 03:04:11;;;;;;;1.23;0.50;;;;;;;6.06;100.00;101731.09;4955241;28;20129;-75
2022/12/28 03:08:37;;;;;;;2.08;0.30;;;;;;;5.88;100.00;101737.22;4946892;28;21694;-75
2022/12/28 03:10:44;;;;;;;3.88;0.90;;;;;;;5.86;100.00;101741.66;4915003;28;20514;-75
2022/12/28 03:13:42;;;;;;;6.20;2.05;;;;;;;5.94;100.00;101739.53;4919131;28;20439;-75
2022/12/28 03:16:14;;;;;;;6.32;1.77;;;;;;;5.93;100.00;101727.50;4915351;28;20047;-75
2022/12/28 03:32:38;;;;;;;2.85;0.60;;;;;;;5.60;100.00;101699.13;4915877;28;20198;-75
2022/12/28 03:35:04;;;;;;;2.13;0.40;;;;;;;5.61;100.00;101704.19;4915235;28;20077;-75
2022/12/28 03:37:40;;;;;;;1.35;0.50;;;;;;;5.62;100.00;101705.88;4920796;28;20087;-75
2022/12/28 03:40:13;;;;;;;2.95;0.35;;;;;;;5.59;100.00;101708.63;4952474;28;20050;-75
2022/12/28 03:45:43;;;;;;;3.92;0.45;;;;;;;5.45;100.00;101711.09;5056002;28;20086;-75
2022/12/28 03:48:09;;;;;;;1.10;0.40;;;;;;;5.39;100.00;101714.00;5055229;28;20044;-75
2022/12/28 03:50:38;;;;;;;2.85;0.60;;;;;;;5.33;100.00;101722.06;5055247;28;20047;-75
2022/12/28 03:53:03;;;;;;;3.80;0.40;;;;;;;5.26;100.00;101718.97;5066171;28;20036;-75
2022/12/28 03:55:29;;;;;;;2.60;0.60;;;;;;;5.21;100.00;101725.28;5056714;28;20040;-75
2022/12/28 03:57:55;;;;;;;1.23;0.40;;;;;;;5.17;100.00;101718.66;5062516;28;20057;-76
2022/12/28 04:00:20;;;;;;;1.20;0.40;;;;;;;5.29;100.00;101726.56;5054425;28;20043;-75
2022/12/28 04:02:46;;;;;;;1.33;0.60;;;;;;;5.33;100.00;101722.91;5037043;28;20037;-76
2022/12/28 04:05:11;;;;;;;2.53;0.65;;;;;;;5.39;100.00;101721.75;5058621;28;20036;-76
2022/12/28 04:07:37;;;;;;;1.25;0.50;;;;;;;5.44;100.00;101719.78;5059763;28;20040;-76
2022/12/28 04:10:02;;;;;;;2.30;0.35;;;;;;;5.55;100.00;101726.97;5055446;28;20024;-76
2022/12/28 04:12:28;;;;;;;1.13;0.32;;;;;;;5.61;100.00;101731.81;5055171;28;20103;-75
2022/12/28 04:14:53;;;;;;;1.52;0.30;;;;;;;5.66;100.00;101728.06;5068905;28;20028;-76
2022/12/28 04:17:19;;;;;;;1.10;0.50;;;;;;;5.64;100.00;101716.97;5061030;28;20098;-76
2022/12/28 04:19:44;;;;;;;1.70;0.40;;;;;;;5.71;100.00;101719.19;5067591;28;20028;-76
2022/12/28 04:22:09;;;;;;;1.63;0.52;;;;;;;5.74;100.00;101725.03;5060889;28;20047;-76
2022/12/28 04:24:35;;;;;;;1.20;0.40;;;;;;;5.81;100.00;101722.97;5057653;28;20067;-76
2022/12/28 04:27:00;;;;;;;5.25;0.73;;;;;;;5.93;100.00;101722.31;5054976;28;20037;-76
2022/12/28 04:29:26;;;;;;;2.55;0.60;;;;;;;6.09;100.00;101715.41;5056830;28;20106;-76
2022/12/28 04:31:51;;;;;;;2.00;0.73;;;;;;;6.12;100.00;101719.56;5034865;28;20114;-76
2022/12/28 04:34:17;;;;;;;2.33;1.00;;;;;;;6.03;100.00;101728.66;5054908;28;20175;-76
2022/12/28 04:36:42;;;;;;;2.55;1.20;;;;;;;5.91;100.00;101729.34;5054835;28;20028;-76
2022/12/28 04:39:08;;;;;;;4.10;2.03;;;;;;;5.93;100.00;101732.66;5066474;28;20101;-76
2022/12/28 04:41:33;;;;;;;3.15;1.67;;;;;;;5.88;100.00;101729.47;5062858;28;20111;-76
2022/12/28 04:43:59;;;;;;;4.70;2.60;;;;;;;5.97;100.00;101735.00;5072119;28;20048;-76
2022/12/28 04:46:24;;;;;;;2.33;0.70;;;;;;;6.51;100.00;101734.59;5064133;28;20463;-77
2022/12/28 04:48:50;;;;;;;3.33;0.60;;;;;;;6.87;100.00;101732.47;5056574;28;20036;-76
2022/12/28 04:51:22;;;;;;;1.70;0.57;;;;;;;6.96;100.00;101736.28;5059165;28;20040;-76
2022/12/28 04:53:48;;;;;;;2.35;0.50;;;;;;;6.89;100.00;101738.38;5067664;28;20396;-76
2022/12/28 04:56:14;;;;;;;3.20;0.57;;;;;;;6.89;100.00;101743.56;5060358;28;20049;-76
2022/12/28 04:58:40;;;;;;;5.53;1.95;;;;;;;6.99;100.00;101730.91;5077286;28;20072;-76
2022/12/28 05:01:11;;;;;;;1.75;0.40;;;;;;;7.11;100.00;101737.94;5067457;28;20117;-76
2022/12/28 05:03:38;;;;;;;1.50;0.40;;;;;;;7.24;96.80;101730.25;5054683;28;20236;-76
2022/12/28 05:06:07;;;;;;;2.10;0.30;;;;;;;7.41;91.08;101731.84;5077132;28;20052;-77
2022/12/28 05:08:35;;;;;;;1.00;0.30;;;;;;;7.57;91.25;101727.38;5065236;28;20041;-76
2022/12/28 05:11:05;;;;;;;0.50;0.20;;;;;;;7.62;83.88;101720.97;5055907;28;20483;-77
2022/12/28 05:13:32;;;;;;;0.93;0.25;;;;;;;7.75;85.36;101715.03;5057147;28;21620;-77
2022/12/28 05:16:06;;;;;;;0.75;0.30;;;;;;;7.74;84.26;101718.53;5059161;28;20032;-76
2022/12/28 05:18:32;;;;;;;0.65;0.20;;;;;;;7.83;81.05;101717.97;5058931;28;20467;-76
2022/12/28 05:21:10;;;;;;;1.13;0.20;;;;;;;7.90;77.32;101720.09;5070202;28;20041;-77
2022/12/28 05:23:37;;;;;;;1.80;0.20;;;;;;;7.93;80.81;101724.25;5063579;28;20090;-76
2022/12/28 05:26:08;;;;;;;1.40;0.30;;;;;;;7.90;80.95;101722.69;5059680;28;20499;-77
2022/12/28 05:28:33;;;;;;;1.58;0.70;;;;;;;7.82;83.08;101722.34;5057234;28;20371;-76
2022/12/28 05:31:01;;;;;;;1.55;0.45;;;;;;;7.70;85.90;101723.09;5053423;28;20047;-76
2022/12/28 05:33:29;;;;;;;1.35;0.40;;;;;;;7.61;88.18;101723.66;5055804;28;20040;-76
2022/12/28 05:35:55;;;;;;;1.20;0.40;;;;;;;7.55;90.21;101724.06;5054122;28;21584;-76
2022/12/28 05:38:21;;;;;;;2.13;0.60;;;;;;;7.54;87.51;101718.03;5057669;28;20071;-77
2022/12/28 05:40:46;;;;;;;2.45;0.80;;;;;;;7.68;85.78;101711.16;5062599;28;20062;-77
2022/12/28 05:43:11;;;;;;;2.40;0.40;;;;;;;7.68;84.87;101698.19;5074779;28;20036;-77
2022/12/28 05:45:37;;;;;;;8.40;0.80;;;;;;;7.70;82.68;101693.72;5056441;28;20119;-77
2022/12/28 05:48:02;;;;;;;2.42;0.30;;;;;;;7.79;81.86;101685.38;5037358;28;21865;-76
2022/12/28 05:50:28;;;;;;;4.10;0.40;;;;;;;7.58;86.08;101683.19;5057926;28;20036;-76
2022/12/28 05:52:53;;;;;;;1.35;0.30;;;;;;;7.24;91.86;101681.84;5054683;28;20451;-76
2022/12/28 05:55:19;;;;;;;1.67;0.50;;;;;;;6.91;97.08;101679.53;5056393;28;20032;-76
2022/12/28 05:57:44;;;;;;;4.80;2.00;;;;;;;6.76;100.00;101684.78;5054973;28;20067;-76
2022/12/28 06:00:10;;;;;;;2.15;0.90;;;;;;;6.68;100.00;101684.41;5054466;28;20191;-76
2022/12/28 06:02:35;;;;;;;2.00;0.63;;;;;;;6.63;100.00;101689.84;5053670;28;20040;-76
2022/12/28 06:05:01;;;;;;;3.85;0.98;;;;;;;6.55;100.00;101690.31;5054877;28;20680;-76
2022/12/28 06:07:26;;;;;;;2.70;0.68;;;;;;;6.48;100.00;101685.56;5053329;28;20040;-76
2022/12/28 06:09:52;;;;;;;1.70;0.82;;;;;;;6.38;100.00;101682.69;5057182;28;20032;-76
2022/12/28 06:12:17;;;;;;;4.15;0.82;;;;;;;6.25;100.00;101685.13;5056957;28;20071;-76
2022/12/28 06:14:42;;;;;;;6.70;1.20;;;;;;;6.12;100.00;101684.19;5055369;28;20044;-76
2022/12/28 06:17:08;;;;;;;3.38;2.05;;;;;;;6.08;100.00;101689.59;5055235;28;20472;-76
2022/12/28 06:19:33;;;;;;;2.63;0.88;;;;;;;6.15;100.00;101691.75;5054893;28;20147;-75
2022/12/28 06:21:59;;;;;;;3.05;1.30;;;;;;;6.20;100.00;101694.06;5054470;28;20032;-77
2022/12/28 06:24:24;;;;;;;3.67;2.03;;;;;;;6.20;100.00;101694.91;5052172;28;20050;-77
2022/12/28 06:26:49;;;;;;;16.67;8.48;;;;;;;6.19;100.00;101706.16;5058415;28;20145;-76
2022/12/28 06:29:15;;;;;;;10.55;4.70;;;;;;;6.15;100.00;101707.25;5055076;28;20028;-75
2022/12/28 06:31:45;;;;;;;7.80;3.00;;;;;;;6.11;100.00;101710.13;5054017;28;20085;-76
2022/12/28 06:34:12;;;;;;;5.57;1.92;;;;;;;6.06;100.00;101718.16;5055125;28;20043;-76
2022/12/28 06:36:39;;;;;;;3.38;1.60;;;;;;;6.02;100.00;101708.88;5052858;28;20140;-76
2022/12/28 06:39:08;;;;;;;4.55;1.50;;;;;;;5.99;100.00;101715.06;5053955;28;20127;-76
2022/12/28 06:41:34;;;;;;;3.92;2.25;;;;;;;5.91;100.00;101713.81;5053313;28;20029;-75
2022/12/28 06:44:00;;;;;;;2.08;1.52;;;;;;;5.99;100.00;101720.25;5046705;28;20040;-76
2022/12/28 06:46:29;;;;;;;4.45;1.45;;;;;;;6.04;100.00;101716.56;5059736;28;20025;-75
2022/12/28 06:48:56;;;;;;;4.18;1.80;;;;;;;6.10;100.00;101721.41;5073157;28;20124;-76
2022/12/28 06:51:24;;;;;;;3.38;2.17;;;;;;;6.14;100.00;101721.16;5067724;28;20407;-75
2022/12/28 06:53:51;;;;;;;2.90;1.88;;;;;;;6.20;100.00;101719.94;5065795;28;20494;-75
2022/12/28 06:56:26;;;;;;;3.85;1.75;;;;;;;6.20;100.00;101717.34;5063882;28;20056;-75
2022/12/28 06:58:52;;;;;;;4.20;2.40;;;;;;;6.17;100.00;101713.19;5064052;28;20029;-76
2022/12/28 07:01:23;;;;;;;3.55;1.50;;;;;;;6.19;100.00;101719.13;5069034;28;20098;-75
2022/12/28 07:03:51;;;;;;;9.57;1.77;;;;;;;6.22;100.00;101718.94;5065940;28;20536;-76
2022/12/28 07:06:19;;;;;;;3.28;1.60;;;;;;;6.25;100.00;101721.34;5044750;28;20055;-76
2022/12/28 07:08:45;;;;;;;4.50;2.25;;;;;;;6.26;100.00;101723.03;5065237;28;20025;-75
2022/12/28 07:11:14;;;;;;;4.72;2.90;;;;;;;6.27;100.00;101726.44;5048239;28;20063;-76
2022/12/28 07:13:40;;;;;;;6.57;4.18;;;;;;;6.25;100.00;101729.13;5062390;28;20060;-75
2022/12/28 07:16:09;;;;;;;6.63;4.35;;;;;;;6.25;100.00;101720.53;5067772;28;20067;-76
2022/12/28 07:18:36;;;;;;;4.60;2.90;;;;;;;6.22;100.00;101708.59;5068526;28;20033;-76
2022/12/28 07:21:04;;;;;;;8.82;4.88;;;;;;;6.26;100.00;101704.06;5068455;28;20059;-75
2022/12/28 07:23:30;;;;;;;5.60;3.65;;;;;;;6.30;100.00;101710.75;5062131;28;20048;-76
2022/12/28 07:25:57;;;;;;;39.25;7.07;;;;;;;6.35;100.00;101707.91;5060340;28;20046;-76
2022/12/28 07:28:23;;;;;;;51.15;9.40;;;;;;;6.37;100.00;101709.50;5054180;28;20033;-75
2022/12/28 07:30:49;;;;;;;12.05;7.03;;;;;;;6.42;100.00;101722.16;5069522;28;20028;-76
2022/12/28 07:33:14;;;;;;;13.82;7.15;;;;;;;6.41;100.00;101716.16;5066226;28;20441;-76
2022/12/28 07:35:40;;;;;;;8.27;4.68;;;;;;;6.47;100.00;101718.41;5067094;28;20052;-76
2022/12/28 07:38:05;;;;;;;5.32;2.58;;;;;;;6.52;100.00;101716.38;5074798;28;20043;-76
2022/12/28 07:40:31;;;;;;;6.35;2.20;;;;;;;6.56;100.00;101717.03;5070827;28;20062;-76
2022/12/28 07:42:59;;;;;;;9.27;2.25;;;;;;;6.57;100.00;101726.47;5073312;28;20032;-76
2022/12/28 07:45:24;;;;;;;5.97;1.77;;;;;;;6.61;100.00;101734.00;5069606;28;20024;-77
2022/12/28 07:47:50;;;;;;;10.02;3.40;;;;;;;6.69;100.00;101735.28;5071421;28;20489;-76
2022/12/28 07:50:15;;;;;;;4.05;1.50;;;;;;;6.82;100.00;101737.06;5076711;28;20131;-76
2022/12/28 07:52:40;;;;;;;6.03;2.42;;;;;;;6.97;100.00;101727.56;5070042;28;20028;-77
2022/12/28 07:55:06;;;;;;;8.55;2.50;;;;;;;7.09;100.00;101736.38;5065681;28;20021;-76
2022/12/28 07:57:33;;;;;;;14.13;3.10;;;;;;;7.18;100.00;101735.81;5071622;28;20091;-77
2022/12/28 07:59:58;;;;;;;23.48;4.55;;;;;;;7.26;100.00;101731.84;5072340;28;20040;-76
2022/12/28 08:02:24;;;;;;;9.43;3.13;;;;;;;7.34;100.00;101744.34;5071864;28;20037;-76
2022/12/28 08:04:49;;;;;;;6.25;2.97;;;;;;;7.38;100.00;101739.81;5077276;28;21037;-77
2022/12/28 08:07:15;;;;;;;8.13;3.47;;;;;;;7.37;100.00;101743.31;5075679;28;20055;-77
2022/12/28 08:09:40;;;;;;;6.97;3.22;;;;;;;7.34;100.00;101744.34;5081481;28;20412;-77
2022/12/28 08:12:06;;;;;;;7.68;3.60;;;;;;;7.40;100.00;101741.38;5083599;28;20028;-76
2022/12/28 08:14:31;;;;;;;5.28;3.08;;;;;;;7.42;100.00;101744.72;5090194;28;20051;-76
2022/12/28 08:16:57;;;;;;;6.65;2.60;;;;;;;7.39;100.00;101734.53;5089184;28;20020;-76
2022/12/28 08:19:22;;;;;;;5.78;2.53;;;;;;;7.40;100.00;101732.78;5093119;28;20033;-77
2022/12/28 08:21:48;;;;;;;4.90;1.60;;;;;;;7.42;100.00;101738.69;5075829;28;20031;-76
2022/12/28 08:24:16;;;;;;;6.50;2.78;;;;;;;7.46;100.00;101742.78;5072888;28;20043;-76
2022/12/28 08:26:43;;;;;;;7.20;3.05;;;;;;;7.53;100.00;101749.25;5071833;28;20051;-77
2022/12/28 08:29:14;;;;;;;7.25;3.45;;;;;;;7.59;100.00;101735.88;5081153;28;20024;-77
2022/12/28 08:31:41;;;;;;;9.00;3.00;;;;;;;7.60;100.00;101732.38;5068562;28;20029;-76
2022/12/28 08:34:11;;;;;;;3.67;2.17;;;;;;;7.58;100.00;101734.22;5068159;28;20514;-76
2022/12/28 08:36:36;;;;;;;3.58;1.85;;;;;;;7.55;100.00;101726.66;5069205;28;25040;-76
2022/12/28 08:39:02;;;;;;;3.85;1.77;;;;;;;7.56;100.00;101736.09;5068358;28;20047;-76
2022/12/28 08:41:29;;;;;;;3.22;1.73;;;;;;;7.59;100.00;101735.88;5067728;28;20029;-75
2022/12/28 08:43:55;;;;;;;3.65;1.77;;;;;;;7.62;100.00;101736.53;5069658;28;20052;-76
2022/12/28 08:46:30;;;;;;;2.15;1.00;;;;;;;7.61;100.00;101737.47;5067093;28;20028;-76
2022/12/28 08:48:57;;;;;;;1.85;0.82;;;;;;;7.67;99.21;101728.47;5069964;28;20033;-76
2022/12/28 08:51:29;;;;;;;1.65;0.90;;;;;;;7.70;98.65;101728.28;5067575;28;20039;-76
2022/12/28 08:53:55;;;;;;;1.90;1.25;;;;;;;7.78;98.41;101723.44;5065509;28;20490;-76
2022/12/28 08:56:22;;;;;;;2.13;0.90;;;;;;;7.84;98.57;101728.25;5069241;28;20048;-75
2022/12/28 08:58:48;;;;;;;1.73;0.93;;;;;;;7.91;97.84;101736.50;5067502;28;20131;-76
2022/12/28 09:01:17;;;;;;;3.53;1.10;;;;;;;8.01;98.07;101737.59;5082975;28;20112;-76
2022/12/28 09:03:44;;;;;;;2.50;1.02;;;;;;;8.12;95.88;101747.25;5049136;28;20155;-77
2022/12/28 09:06:12;;;;;;;2.72;1.63;;;;;;;8.20;94.95;101735.47;5071983;28;20127;-77
2022/12/28 09:08:38;;;;;;;5.75;2.22;;;;;;;8.22;94.82;101743.16;5079235;28;20056;-77
2022/12/28 09:11:07;;;;;;;7.55;2.42;;;;;;;8.22;95.09;101741.41;5077949;28;20092;-73
2022/12/28 09:13:33;;;;;;;3.53;1.58;;;;;;;8.23;94.08;101737.88;5027874;28;20441;-74
2022/12/28 09:16:04;;;;;;;4.47;1.40;;;;;;;8.24;93.12;101744.72;5065080;28;20024;-74
2022/12/28 09:18:29;;;;;;;4.00;1.30;;;;;;;8.23;92.93;101748.25;5066528;28;20028;-74
2022/12/28 09:20:55;;;;;;;4.00;1.83;;;;;;;8.24;92.55;101747.31;5067011;28;20029;-77
2022/12/28 09:23:21;;;;;;;35.97;4.28;;;;;;;8.23;93.50;101758.63;5078433;28;20032;-76
2022/12/28 09:25:47;;;;;;;15.00;3.28;;;;;;;8.20;92.82;101748.44;5073293;28;20024;-76
2022/12/28 09:28:13;;;;;;;31.23;6.78;;;;;;;8.21;92.00;101757.91;5061482;28;20060;-77
2022/12/28 09:30:38;;;;;;;15.90;2.97;;;;;;;8.24;92.09;101760.31;5063731;28;20424;-76
2022/12/28 09:35:48;;;;;;;18.60;3.20;;;;;;;8.37;93.54;101767.34;5064006;28;20051;-75
2022/12/28 09:38:13;;;;;;;8.90;2.90;;;;;;;8.43;93.37;101764.34;5063199;28;20025;-74
2022/12/28 09:40:39;;;;;;;6.30;2.67;;;;;;;8.45;91.18;101754.69;5062035;28;20032;-75
2022/12/28 09:43:04;;;;;;;5.95;2.65;;;;;;;8.46;90.75;101759.81;5065299;28;20040;-73
2022/12/28 09:45:32;;;;;;;4.18;1.40;;;;;;;8.48;89.69;101762.31;5061740;28;20024;-74
2022/12/28 09:48:07;;;;;;;3.58;0.77;;;;;;;8.49;89.18;101761.38;5060255;28;20032;-74
2022/12/28 09:50:34;;;;;;;6.53;1.30;;;;;;;8.48;89.93;101765.72;5055022;28;20095;-73
2022/12/28 09:53:12;;;;;;;3.38;1.35;;;;;;;8.52;89.57;101759.38;5061377;28;20024;-73
2022/12/28 09:55:42;;;;;;;2.40;1.00;;;;;;;8.53;89.68;101761.03;5066779;28;20029;-73
2022/12/28 09:58:15;;;;;;;2.70;1.10;;;;;;;8.55;89.00;101753.97;5065894;28;20078;-73
2022/12/28 10:00:45;;;;;;;1.75;0.60;;;;;;;8.59;88.24;101752.00;5063472;28;20487;-75
2022/12/28 10:03:30;;;;;;;2.63;1.27;;;;;;;8.65;85.34;101754.22;5069600;28;20036;-75
2022/12/28 10:05:57;;;;;;;2.95;1.45;;;;;;;8.74;86.57;101743.22;5064996;28;20043;-75
2022/12/28 10:08:24;;;;;;;2.55;0.95;;;;;;;8.83;85.62;101747.81;5066932;28;20043;-75
2022/12/28 10:10:51;;;;;;;1.30;0.70;;;;;;;8.92;83.51;101742.00;5066077;28;20060;-76
2022/12/28 10:13:28;;;;;;;3.40;0.80;;;;;;;9.00;81.66;101738.88;5065749;28;20067;-72
2022/12/28 10:15:54;;;;;;;1.10;0.52;;;;;;;9.06;82.56;101742.81;5066102;28;20594;-72
2022/12/28 10:18:23;;;;;;;1.10;0.40;;;;;;;9.08;79.77;101736.59;5065344;28;20090;-72
2022/12/28 10:20:49;;;;;;;2.25;0.60;;;;;;;9.13;81.54;101733.66;5040657;28;20036;-72
2022/12/28 10:23:23;;;;;;;10.38;2.70;;;;;;;9.15;79.46;101731.81;5062400;28;20472;-72
2022/12/28 10:25:52;;;;;;;13.55;3.67;;;;;;;9.20;81.91;101724.53;5064442;28;20507;-72
2022/12/28 10:28:21;;;;;;;27.58;6.80;;;;;;;9.21;81.82;101720.97;5059614;28;20371;-73
2022/12/28 10:31:01;;;;;;;6.10;2.13;;;;;;;9.16;82.17;101717.88;5064412;28;20032;-73
2022/12/28 10:33:27;;;;;;;7.32;1.98;;;;;;;9.13;83.37;101715.47;5066930;28;20040;-72
2022/12/28 10:35:58;;;;;;;26.15;3.45;;;;;;;9.11;82.98;101712.16;5061378;28;20426;-72
2022/12/28 10:38:31;;;;;;;35.78;8.23;;;;;;;9.16;83.49;101707.47;5047179;28;20032;-72
2022/12/28 10:41:04;;;;;;;11.10;2.70;;;;;;;9.21;83.22;101713.19;5062029;28;20064;-72
2022/12/28 10:43:35;;;;;;;6.32;1.42;;;;;;;9.23;83.25;101711.31;5065518;28;20048;-73
2022/12/28 10:46:02;;;;;;;3.42;1.00;;;;;;;9.25;83.53;101704.25;5062936;28;20447;-72
2022/12/28 10:48:33;;;;;;;1.30;0.60;;;;;;;9.24;82.89;101692.16;5065481;28;20044;-72
2022/12/28 10:51:17;;;;;;;3.58;1.23;;;;;;;9.20;80.67;101703.72;5064126;28;20029;-72
2022/12/28 10:53:48;;;;;;;3.88;0.80;;;;;;;9.21;82.68;101687.19;5057558;28;20040;-72
2022/12/28 10:56:13;;;;;;;1.50;0.70;;;;;;;9.23;84.16;101691.34;5043569;28;20040;-72
2022/12/28 10:58:41;;;;;;;2.25;0.70;;;;;;;9.26;83.85;101685.09;5065204;28;20435;-72
2022/12/28 11:01:12;;;;;;;3.00;0.85;;;;;;;9.24;82.71;101684.38;5064067;28;20032;-72
2022/12/28 11:04:06;;;;;;;2.25;0.93;;;;;;;9.26;79.73;101680.72;5069338;28;20027;-73
2022/12/28 11:06:49;;;;;;;4.22;1.10;;;;;;;9.29;82.34;101669.28;5064575;28;20037;-73
2022/12/28 11:09:17;;;;;;;2.83;1.02;;;;;;;9.33;82.47;101678.53;5064799;28;20423;-72
2022/12/28 11:11:45;;;;;;;2.78;1.17;;;;;;;9.35;83.26;101676.66;5064072;28;20032;-72
2022/12/28 11:14:19;;;;;;;4.25;1.25;;;;;;;9.40;83.27;101669.38;5068782;28;20411;-75
2022/12/28 11:16:45;;;;;;;3.13;1.60;;;;;;;9.48;83.53;101671.41;5068078;28;20466;-74
2022/12/28 11:19:11;;;;;;;2.88;1.00;;;;;;;9.55;83.42;101678.66;5069297;28;20028;-73
2022/12/28 11:21:38;;;;;;;1.35;0.63;;;;;;;9.52;83.23;101671.06;5050357;28;20040;-73
2022/12/28 11:24:04;;;;;;;2.55;1.00;;;;;;;9.50;83.40;101675.56;5065389;28;20428;-74
2022/12/28 11:26:31;;;;;;;3.65;1.48;;;;;;;9.52;82.42;101673.69;5073877;28;20103;-74
2022/12/28 11:29:00;;;;;;;5.72;1.70;;;;;;;9.53;82.68;101670.13;5068416;28;20148;-74
2022/12/28 11:31:34;;;;;;;2.97;1.88;;;;;;;9.55;81.82;101670.03;5068591;28;20036;-74
2022/12/28 11:34:03;;;;;;;2.58;1.30;;;;;;;9.57;82.22;101661.19;5064416;28;20043;-74
2022/12/28 11:36:32;;;;;;;3.00;0.90;;;;;;;9.58;81.31;101669.81;5066286;28;20033;-74
2022/12/28 11:39:18;;;;;;;1.88;0.90;;;;;;;9.57;81.55;101657.75;5062068;28;20024;-72
2022/12/28 11:41:44;;;;;;;28.80;2.23;;;;;;;9.58;81.56;101649.84;5064015;28;20043;-74
2022/12/28 11:44:20;;;;;;;14.85;1.00;;;;;;;9.67;78.68;101650.13;5069145;28;20107;-71
2022/12/28 11:47:01;;;;;;;4.78;0.73;;;;;;;9.70;77.43;101655.09;5067739;28;20044;-73
2022/12/28 11:49:30;;;;;;;1.80;0.80;;;;;;;9.75;78.99;101645.19;5045056;28;20041;-73
2022/12/28 11:52:33;;;;;;;2.33;0.82;;;;;;;9.75;76.24;101647.81;5067411;28;20039;-74
2022/12/28 11:55:01;;;;;;;1.70;0.52;;;;;;;9.74;79.17;101643.53;5048503;28;20445;-74
2022/12/28 11:57:38;;;;;;;1.48;0.50;;;;;;;9.73;79.00;101634.06;5062337;28;20051;-73
2022/12/28 12:00:18;;;;;;;8.05;0.90;;;;;;;9.77;77.34;101636.34;5069234;28;20123;-74
2022/12/28 12:02:55;;;;;;;1.75;0.90;;;;;;;9.79;77.87;101628.44;5063070;28;20048;-74